sensor_id;sensor_type;location;lat;lon;timestamp;temperature;humidity
4594;DHT22;2309;51.674;8.368;2023-06-14T00:00:35;15.40;1.00
4594;DHT22;2309;51.674;8.368;2023-06-14T00:03:02;15.40;1.00
4594;DHT22;2309;51.674;8.368;2023-06-14T00:05:29;15.50;1.00
4594;DHT22;2309;51.674;8.368;2023-06-14T00:07:58;15.40;1.00
4594;DHT22;2309;51.674;8.368;2023-06-14T00:10:26;15.40;1.00
4594;DHT22;2309;51.674;8.368;2023-06-14T00:12:54;15.40;1.00
4594;DHT22;2309;51.674;8.368;2023-06-14T00:15:21;15.40;1.00
4594;DHT22;2309;51.674;8.368;2023-06-14T00:17:49;15.30;1.00
4594;DHT22;2309;51.674;8.368;2023-06-14T00:20:16;15.20;1.00
4594;DHT22;2309;51.674;8.368;2023-06-14T00:22:43;15.10;1.00
4594;DHT22;2309;51.674;8.368;2023-06-14T00:25:11;15.10;1.00
4594;DHT22;2309;51.674;8.368;2023-06-14T00:27:38;13.60;1.00
4594;DHT22;2309;51.674;8.368;2023-06-14T00:30:05;15.00;1.00
4594;DHT22;2309;51.674;8.368;2023-06-14T00:32:32;15.00;1.00
4594;DHT22;2309;51.674;8.368;2023-06-14T00:34:58;15.00;1.00
4594;DHT22;2309;51.674;8.368;2023-06-14T00:37:25;15.10;1.00
4594;DHT22;2309;51.674;8.368;2023-06-14T00:39:52;15.10;1.00
4594;DHT22;2309;51.674;8.368;2023-06-14T00:42:23;15.20;1.00
4594;DHT22;2309;51.674;8.368;2023-06-14T00:44:49;15.10;1.00
4594;DHT22;2309;51.674;8.368;2023-06-14T00:47:16;15.20;1.00
4594;DHT22;2309;51.674;8.368;2023-06-14T00:49:43;15.10;1.00
4594;DHT22;2309;51.674;8.368;2023-06-14T00:52:10;15.20;1.00
4594;DHT22;2309;51.674;8.368;2023-06-14T00:54:39;15.20;1.00
4594;DHT22;2309;51.674;8.368;2023-06-14T00:57:06;15.10;1.00
4594;DHT22;2309;51.674;8.368;2023-06-14T00:59:33;15.00;1.00
4594;DHT22;2309;51.674;8.368;2023-06-14T01:02:01;15.00;1.00
4594;DHT22;2309;51.674;8.368;2023-06-14T01:04:28;15.00;1.00
4594;DHT22;2309;51.674;8.368;2023-06-14T01:07:05;14.90;1.00
4594;DHT22;2309;51.674;8.368;2023-06-14T01:10:15;14.90;1.00
4594;DHT22;2309;51.674;8.368;2023-06-14T01:11:59;14.70;1.00
4594;DHT22;2309;51.674;8.368;2023-06-14T01:14:22;14.70;1.00
4594;DHT22;2309;51.674;8.368;2023-06-14T01:16:50;14.50;1.00
4594;DHT22;2309;51.674;8.368;2023-06-14T01:19:19;14.50;1.00
4594;DHT22;2309;51.674;8.368;2023-06-14T01:21:48;14.50;1.00
4594;DHT22;2309;51.674;8.368;2023-06-14T01:24:16;14.50;1.00
4594;DHT22;2309;51.674;8.368;2023-06-14T01:26:45;14.40;1.00
4594;DHT22;2309;51.674;8.368;2023-06-14T01:29:14;14.30;1.00
4594;DHT22;2309;51.674;8.368;2023-06-14T01:31:43;14.30;1.00
4594;DHT22;2309;51.674;8.368;2023-06-14T01:34:12;14.40;1.00
4594;DHT22;2309;51.674;8.368;2023-06-14T01:36:47;14.30;1.00
4594;DHT22;2309;51.674;8.368;2023-06-14T01:39:10;14.30;1.00
4594;DHT22;2309;51.674;8.368;2023-06-14T01:41:37;14.30;1.00
4594;DHT22;2309;51.674;8.368;2023-06-14T01:44:04;14.20;1.00
4594;DHT22;2309;51.674;8.368;2023-06-14T01:46:31;14.20;1.00
4594;DHT22;2309;51.674;8.368;2023-06-14T01:48:58;14.20;1.00
4594;DHT22;2309;51.674;8.368;2023-06-14T01:51:26;14.20;1.00
4594;DHT22;2309;51.674;8.368;2023-06-14T01:53:52;14.10;1.00
4594;DHT22;2309;51.674;8.368;2023-06-14T01:56:19;14.00;1.00
4594;DHT22;2309;51.674;8.368;2023-06-14T01:58:47;14.00;1.00
4594;DHT22;2309;51.674;8.368;2023-06-14T02:01:14;13.90;1.00
4594;DHT22;2309;51.674;8.368;2023-06-14T02:03:42;13.90;1.00
4594;DHT22;2309;51.674;8.368;2023-06-14T02:06:10;13.80;1.00
4594;DHT22;2309;51.674;8.368;2023-06-14T02:08:38;13.70;1.00
4594;DHT22;2309;51.674;8.368;2023-06-14T02:11:05;13.70;1.00
4594;DHT22;2309;51.674;8.368;2023-06-14T02:13:32;13.70;1.00
4594;DHT22;2309;51.674;8.368;2023-06-14T02:16:00;13.50;1.00
4594;DHT22;2309;51.674;8.368;2023-06-14T02:18:27;13.50;1.00
4594;DHT22;2309;51.674;8.368;2023-06-14T02:20:54;13.50;1.00
4594;DHT22;2309;51.674;8.368;2023-06-14T02:23:22;13.50;1.00
4594;DHT22;2309;51.674;8.368;2023-06-14T02:25:49;13.60;1.00
4594;DHT22;2309;51.674;8.368;2023-06-14T02:28:16;13.50;1.00
4594;DHT22;2309;51.674;8.368;2023-06-14T02:30:43;13.60;1.00
4594;DHT22;2309;51.674;8.368;2023-06-14T02:33:10;13.50;1.00
4594;DHT22;2309;51.674;8.368;2023-06-14T02:35:38;13.50;1.00
4594;DHT22;2309;51.674;8.368;2023-06-14T02:38:05;13.50;1.00
4594;DHT22;2309;51.674;8.368;2023-06-14T02:40:32;13.50;1.00
4594;DHT22;2309;51.674;8.368;2023-06-14T02:42:59;13.40;1.00
4594;DHT22;2309;51.674;8.368;2023-06-14T02:45:28;13.40;1.00
4594;DHT22;2309;51.674;8.368;2023-06-14T02:47:54;13.40;1.00
4594;DHT22;2309;51.674;8.368;2023-06-14T02:50:21;13.30;1.00
4594;DHT22;2309;51.674;8.368;2023-06-14T02:52:49;13.20;1.00
4594;DHT22;2309;51.674;8.368;2023-06-14T02:55:18;13.20;1.00
4594;DHT22;2309;51.674;8.368;2023-06-14T02:57:46;13.40;1.00
4594;DHT22;2309;51.674;8.368;2023-06-14T03:00:14;13.20;1.00
4594;DHT22;2309;51.674;8.368;2023-06-14T03:02:41;13.20;1.00
4594;DHT22;2309;51.674;8.368;2023-06-14T03:05:09;13.30;1.00
4594;DHT22;2309;51.674;8.368;2023-06-14T03:07:35;13.20;1.00
4594;DHT22;2309;51.674;8.368;2023-06-14T03:10:04;13.20;1.00
4594;DHT22;2309;51.674;8.368;2023-06-14T03:12:32;13.20;1.00
4594;DHT22;2309;51.674;8.368;2023-06-14T03:14:59;13.20;1.00
4594;DHT22;2309;51.674;8.368;2023-06-14T03:17:28;13.10;1.00
4594;DHT22;2309;51.674;8.368;2023-06-14T03:19:55;13.10;1.00
4594;DHT22;2309;51.674;8.368;2023-06-14T03:22:22;13.10;1.00
4594;DHT22;2309;51.674;8.368;2023-06-14T03:24:51;13.10;1.00
4594;DHT22;2309;51.674;8.368;2023-06-14T03:27:20;13.10;1.00
4594;DHT22;2309;51.674;8.368;2023-06-14T03:29:47;13.20;1.00
4594;DHT22;2309;51.674;8.368;2023-06-14T03:32:14;13.20;1.00
4594;DHT22;2309;51.674;8.368;2023-06-14T03:34:41;13.20;1.00
4594;DHT22;2309;51.674;8.368;2023-06-14T03:37:08;13.20;1.00
4594;DHT22;2309;51.674;8.368;2023-06-14T03:39:35;13.20;1.00
4594;DHT22;2309;51.674;8.368;2023-06-14T03:42:03;13.20;1.00
4594;DHT22;2309;51.674;8.368;2023-06-14T03:44:31;13.20;1.00
4594;DHT22;2309;51.674;8.368;2023-06-14T03:46:57;13.20;1.00
4594;DHT22;2309;51.674;8.368;2023-06-14T03:49:26;13.20;1.00
4594;DHT22;2309;51.674;8.368;2023-06-14T03:51:53;13.20;1.00
4594;DHT22;2309;51.674;8.368;2023-06-14T03:54:19;13.20;1.00
4594;DHT22;2309;51.674;8.368;2023-06-14T03:56:47;13.20;1.00
4594;DHT22;2309;51.674;8.368;2023-06-14T03:59:15;13.30;1.00
4594;DHT22;2309;51.674;8.368;2023-06-14T04:01:43;13.20;1.00
4594;DHT22;2309;51.674;8.368;2023-06-14T04:04:11;13.20;1.00
4594;DHT22;2309;51.674;8.368;2023-06-14T04:06:38;13.20;1.00
4594;DHT22;2309;51.674;8.368;2023-06-14T04:09:06;13.20;1.00
4594;DHT22;2309;51.674;8.368;2023-06-14T04:11:33;13.30;1.00
4594;DHT22;2309;51.674;8.368;2023-06-14T04:14:01;13.40;1.00
4594;DHT22;2309;51.674;8.368;2023-06-14T04:16:30;13.30;1.00
4594;DHT22;2309;51.674;8.368;2023-06-14T04:18:56;13.40;1.00
4594;DHT22;2309;51.674;8.368;2023-06-14T04:21:25;13.40;1.00
4594;DHT22;2309;51.674;8.368;2023-06-14T04:23:55;13.50;1.00
4594;DHT22;2309;51.674;8.368;2023-06-14T04:26:25;13.70;1.00
4594;DHT22;2309;51.674;8.368;2023-06-14T04:28:57;13.70;1.00
4594;DHT22;2309;51.674;8.368;2023-06-14T04:31:25;13.70;1.00
4594;DHT22;2309;51.674;8.368;2023-06-14T04:33:53;13.80;1.00
4594;DHT22;2309;51.674;8.368;2023-06-14T04:36:20;13.90;1.00
4594;DHT22;2309;51.674;8.368;2023-06-14T04:38:47;14.00;1.00
4594;DHT22;2309;51.674;8.368;2023-06-14T04:41:15;14.10;1.00
4594;DHT22;2309;51.674;8.368;2023-06-14T04:43:42;14.20;1.00
4594;DHT22;2309;51.674;8.368;2023-06-14T04:46:09;14.20;1.00
4594;DHT22;2309;51.674;8.368;2023-06-14T04:48:37;14.20;1.00
4594;DHT22;2309;51.674;8.368;2023-06-14T04:51:07;14.30;1.00
4594;DHT22;2309;51.674;8.368;2023-06-14T04:53:35;14.50;1.00
4594;DHT22;2309;51.674;8.368;2023-06-14T04:56:01;14.50;1.00
4594;DHT22;2309;51.674;8.368;2023-06-14T04:58:29;14.50;1.00
4594;DHT22;2309;51.674;8.368;2023-06-14T05:00:56;14.70;1.00
4594;DHT22;2309;51.674;8.368;2023-06-14T05:03:25;14.70;1.00
4594;DHT22;2309;51.674;8.368;2023-06-14T05:05:53;14.70;1.00
4594;DHT22;2309;51.674;8.368;2023-06-14T05:08:20;14.80;1.00
4594;DHT22;2309;51.674;8.368;2023-06-14T05:10:49;14.90;1.00
4594;DHT22;2309;51.674;8.368;2023-06-14T05:13:18;15.00;1.00
4594;DHT22;2309;51.674;8.368;2023-06-14T05:15:45;15.20;1.00
4594;DHT22;2309;51.674;8.368;2023-06-14T05:18:12;15.20;1.00
4594;DHT22;2309;51.674;8.368;2023-06-14T05:20:39;15.30;1.00
4594;DHT22;2309;51.674;8.368;2023-06-14T05:23:08;15.40;1.00
4594;DHT22;2309;51.674;8.368;2023-06-14T05:25:37;15.60;1.00
4594;DHT22;2309;51.674;8.368;2023-06-14T05:28:03;15.60;1.00
4594;DHT22;2309;51.674;8.368;2023-06-14T05:30:31;15.80;1.00
4594;DHT22;2309;51.674;8.368;2023-06-14T05:33:01;15.90;1.00
4594;DHT22;2309;51.674;8.368;2023-06-14T05:35:29;16.00;1.00
4594;DHT22;2309;51.674;8.368;2023-06-14T05:37:57;16.20;1.00
4594;DHT22;2309;51.674;8.368;2023-06-14T05:40:25;16.30;1.00
4594;DHT22;2309;51.674;8.368;2023-06-14T05:42:52;16.30;1.00
4594;DHT22;2309;51.674;8.368;2023-06-14T05:45:23;16.50;1.00
4594;DHT22;2309;51.674;8.368;2023-06-14T05:47:57;16.60;1.00
4594;DHT22;2309;51.674;8.368;2023-06-14T05:50:27;16.70;1.00
4594;DHT22;2309;51.674;8.368;2023-06-14T05:52:54;16.70;1.00
4594;DHT22;2309;51.674;8.368;2023-06-14T05:55:23;16.60;1.00
4594;DHT22;2309;51.674;8.368;2023-06-14T05:57:51;16.40;1.00
4594;DHT22;2309;51.674;8.368;2023-06-14T06:00:19;17.10;1.00
4594;DHT22;2309;51.674;8.368;2023-06-14T06:05:17;17.30;1.00
4594;DHT22;2309;51.674;8.368;2023-06-14T06:07:45;17.40;1.00
4594;DHT22;2309;51.674;8.368;2023-06-14T06:10:12;17.40;1.00
4594;DHT22;2309;51.674;8.368;2023-06-14T06:12:40;17.50;1.00
4594;DHT22;2309;51.674;8.368;2023-06-14T06:15:08;17.50;1.00
4594;DHT22;2309;51.674;8.368;2023-06-14T06:17:37;17.60;1.00
4594;DHT22;2309;51.674;8.368;2023-06-14T06:20:04;17.60;1.00
4594;DHT22;2309;51.674;8.368;2023-06-14T06:22:33;17.60;1.00
4594;DHT22;2309;51.674;8.368;2023-06-14T06:25:00;17.80;1.00
4594;DHT22;2309;51.674;8.368;2023-06-14T06:27:27;17.80;1.00
4594;DHT22;2309;51.674;8.368;2023-06-14T06:29:54;18.00;1.00
4594;DHT22;2309;51.674;8.368;2023-06-14T06:32:21;18.00;1.00
4594;DHT22;2309;51.674;8.368;2023-06-14T06:34:48;18.10;1.00
4594;DHT22;2309;51.674;8.368;2023-06-14T06:37:16;18.10;1.00
4594;DHT22;2309;51.674;8.368;2023-06-14T06:39:46;18.20;1.00
4594;DHT22;2309;51.674;8.368;2023-06-14T06:42:14;18.30;1.00
4594;DHT22;2309;51.674;8.368;2023-06-14T06:44:42;18.40;1.00
4594;DHT22;2309;51.674;8.368;2023-06-14T06:47:10;18.40;1.00
4594;DHT22;2309;51.674;8.368;2023-06-14T06:49:37;18.50;1.00
4594;DHT22;2309;51.674;8.368;2023-06-14T06:52:09;18.50;1.00
4594;DHT22;2309;51.674;8.368;2023-06-14T06:54:45;18.50;1.00
4594;DHT22;2309;51.674;8.368;2023-06-14T06:59:41;18.50;1.00
4594;DHT22;2309;51.674;8.368;2023-06-14T07:02:09;18.50;1.00
4594;DHT22;2309;51.674;8.368;2023-06-14T07:04:35;18.60;1.00
4594;DHT22;2309;51.674;8.368;2023-06-14T07:07:03;18.80;1.00
4594;DHT22;2309;51.674;8.368;2023-06-14T07:09:30;18.90;1.00
4594;DHT22;2309;51.674;8.368;2023-06-14T07:14:24;19.00;1.00
4594;DHT22;2309;51.674;8.368;2023-06-14T07:16:52;19.00;1.00
4594;DHT22;2309;51.674;8.368;2023-06-14T07:19:20;19.10;1.00
4594;DHT22;2309;51.674;8.368;2023-06-14T07:21:50;19.10;1.00
4594;DHT22;2309;51.674;8.368;2023-06-14T07:24:16;19.20;1.00
4594;DHT22;2309;51.674;8.368;2023-06-14T07:29:11;19.30;1.00
4594;DHT22;2309;51.674;8.368;2023-06-14T07:34:04;19.20;1.00
4594;DHT22;2309;51.674;8.368;2023-06-14T07:36:31;19.30;1.00
4594;DHT22;2309;51.674;8.368;2023-06-14T07:41:26;19.30;1.00
4594;DHT22;2309;51.674;8.368;2023-06-14T07:43:53;19.30;1.00
4594;DHT22;2309;51.674;8.368;2023-06-14T07:46:21;19.40;1.00
4594;DHT22;2309;51.674;8.368;2023-06-14T07:48:51;19.50;1.00
4594;DHT22;2309;51.674;8.368;2023-06-14T07:51:18;19.50;1.00
4594;DHT22;2309;51.674;8.368;2023-06-14T07:53:45;19.70;1.00
4594;DHT22;2309;51.674;8.368;2023-06-14T07:56:12;19.80;1.00
4594;DHT22;2309;51.674;8.368;2023-06-14T07:58:39;19.90;1.00
4594;DHT22;2309;51.674;8.368;2023-06-14T08:03:38;19.40;1.00
4594;DHT22;2309;51.674;8.368;2023-06-14T08:06:09;19.60;1.00
4594;DHT22;2309;51.674;8.368;2023-06-14T08:11:09;20.00;1.00
4594;DHT22;2309;51.674;8.368;2023-06-14T08:13:36;20.10;1.00
4594;DHT22;2309;51.674;8.368;2023-06-14T08:16:03;20.30;1.00
4594;DHT22;2309;51.674;8.368;2023-06-14T08:18:31;20.40;1.00
4594;DHT22;2309;51.674;8.368;2023-06-14T08:25:52;20.50;1.00
4594;DHT22;2309;51.674;8.368;2023-06-14T08:30:48;20.70;1.00
4594;DHT22;2309;51.674;8.368;2023-06-14T08:33:15;20.60;1.00
4594;DHT22;2309;51.674;8.368;2023-06-14T08:38:16;20.80;1.00
4594;DHT22;2309;51.674;8.368;2023-06-14T08:40:43;21.00;1.00
4594;DHT22;2309;51.674;8.368;2023-06-14T08:43:12;21.10;1.00
4594;DHT22;2309;51.674;8.368;2023-06-14T08:45:40;21.00;1.00
4594;DHT22;2309;51.674;8.368;2023-06-14T08:48:07;21.10;1.00
4594;DHT22;2309;51.674;8.368;2023-06-14T08:50:38;21.30;1.00
4594;DHT22;2309;51.674;8.368;2023-06-14T08:53:08;21.20;1.00
4594;DHT22;2309;51.674;8.368;2023-06-14T08:55:40;21.10;1.00
4594;DHT22;2309;51.674;8.368;2023-06-14T09:03:06;21.30;1.00
4594;DHT22;2309;51.674;8.368;2023-06-14T09:08:14;21.40;1.00
4594;DHT22;2309;51.674;8.368;2023-06-14T10:17:05;24.30;1.00
4594;DHT22;2309;51.674;8.368;2023-06-14T10:19:37;24.50;1.00
4594;DHT22;2309;51.674;8.368;2023-06-14T10:24:52;24.50;1.00
4594;DHT22;2309;51.674;8.368;2023-06-14T10:27:19;24.80;1.00
4594;DHT22;2309;51.674;8.368;2023-06-14T11:18:57;30.50;1.00
4594;DHT22;2309;51.674;8.368;2023-06-14T11:21:46;30.70;1.00
4594;DHT22;2309;51.674;8.368;2023-06-14T11:24:17;30.40;1.00
4594;DHT22;2309;51.674;8.368;2023-06-14T11:34:10;30.30;1.00
4594;DHT22;2309;51.674;8.368;2023-06-14T11:39:04;31.60;1.00
4594;DHT22;2309;51.674;8.368;2023-06-14T11:41:34;32.10;1.00
4594;DHT22;2309;51.674;8.368;2023-06-14T11:44:01;32.70;1.00
4594;DHT22;2309;51.674;8.368;2023-06-14T11:46:29;32.20;1.00
4594;DHT22;2309;51.674;8.368;2023-06-14T11:48:56;30.40;1.00
4594;DHT22;2309;51.674;8.368;2023-06-14T11:51:24;30.30;1.00
4594;DHT22;2309;51.674;8.368;2023-06-14T11:53:55;31.00;1.00
4594;DHT22;2309;51.674;8.368;2023-06-14T12:04:09;30.50;1.00
4594;DHT22;2309;51.674;8.368;2023-06-14T12:09:07;29.50;1.00
4594;DHT22;2309;51.674;8.368;2023-06-14T12:14:30;31.40;1.00
4594;DHT22;2309;51.674;8.368;2023-06-14T12:58:07;34.40;1.00
4594;DHT22;2309;51.674;8.368;2023-06-14T13:24:24;36.10;1.00
4594;DHT22;2309;51.674;8.368;2023-06-14T13:26:51;35.90;1.00
4594;DHT22;2309;51.674;8.368;2023-06-14T13:29:18;35.90;1.00
4594;DHT22;2309;51.674;8.368;2023-06-14T13:31:45;36.00;1.00
4594;DHT22;2309;51.674;8.368;2023-06-14T13:34:12;36.30;1.00
4594;DHT22;2309;51.674;8.368;2023-06-14T13:36:43;36.30;1.00
4594;DHT22;2309;51.674;8.368;2023-06-14T13:39:09;36.80;1.00
4594;DHT22;2309;51.674;8.368;2023-06-14T13:41:37;36.70;1.00
4594;DHT22;2309;51.674;8.368;2023-06-14T13:44:03;37.10;1.00
4594;DHT22;2309;51.674;8.368;2023-06-14T13:46:31;37.50;1.00
4594;DHT22;2309;51.674;8.368;2023-06-14T13:48:57;37.60;1.00
4594;DHT22;2309;51.674;8.368;2023-06-14T13:54:00;37.70;1.00
4594;DHT22;2309;51.674;8.368;2023-06-14T13:56:27;37.40;1.00
4594;DHT22;2309;51.674;8.368;2023-06-14T13:58:54;36.30;1.00
4594;DHT22;2309;51.674;8.368;2023-06-14T14:01:22;34.30;1.00
4594;DHT22;2309;51.674;8.368;2023-06-14T14:03:49;33.90;1.00
4594;DHT22;2309;51.674;8.368;2023-06-14T14:06:16;34.60;1.00
4594;DHT22;2309;51.674;8.368;2023-06-14T14:11:11;36.50;1.00
4594;DHT22;2309;51.674;8.368;2023-06-14T14:13:38;35.80;1.00
4594;DHT22;2309;51.674;8.368;2023-06-14T14:16:06;36.20;1.00
4594;DHT22;2309;51.674;8.368;2023-06-14T14:18:33;37.50;1.00
4594;DHT22;2309;51.674;8.368;2023-06-14T14:21:02;37.50;1.00
4594;DHT22;2309;51.674;8.368;2023-06-14T14:23:29;36.60;1.00
4594;DHT22;2309;51.674;8.368;2023-06-14T14:25:56;37.10;1.00
4594;DHT22;2309;51.674;8.368;2023-06-14T14:28:23;36.20;1.00
4594;DHT22;2309;51.674;8.368;2023-06-14T14:30:51;34.80;1.00
4594;DHT22;2309;51.674;8.368;2023-06-14T14:33:21;33.90;1.00
4594;DHT22;2309;51.674;8.368;2023-06-14T14:35:47;33.70;1.00
4594;DHT22;2309;51.674;8.368;2023-06-14T14:38:14;33.10;1.00
4594;DHT22;2309;51.674;8.368;2023-06-14T14:40:42;32.50;1.00
4594;DHT22;2309;51.674;8.368;2023-06-14T14:43:09;31.40;1.00
4594;DHT22;2309;51.674;8.368;2023-06-14T14:45:39;30.90;1.00
4594;DHT22;2309;51.674;8.368;2023-06-14T14:48:06;30.40;1.00
4594;DHT22;2309;51.674;8.368;2023-06-14T14:50:35;30.10;1.00
4594;DHT22;2309;51.674;8.368;2023-06-14T14:53:01;29.60;1.00
4594;DHT22;2309;51.674;8.368;2023-06-14T14:55:29;31.80;1.00
4594;DHT22;2309;51.674;8.368;2023-06-14T14:57:56;32.30;1.00
4594;DHT22;2309;51.674;8.368;2023-06-14T15:00:23;33.60;1.00
4594;DHT22;2309;51.674;8.368;2023-06-14T15:02:50;34.00;1.00
4594;DHT22;2309;51.674;8.368;2023-06-14T15:05:17;33.20;1.00
4594;DHT22;2309;51.674;8.368;2023-06-14T15:07:44;32.10;1.00
4594;DHT22;2309;51.674;8.368;2023-06-14T15:10:11;30.90;1.00
4594;DHT22;2309;51.674;8.368;2023-06-14T15:12:38;30.50;1.00
4594;DHT22;2309;51.674;8.368;2023-06-14T15:15:05;30.40;1.00
4594;DHT22;2309;51.674;8.368;2023-06-14T15:17:33;29.60;1.00
4594;DHT22;2309;51.674;8.368;2023-06-14T15:20:00;29.90;1.00
4594;DHT22;2309;51.674;8.368;2023-06-14T15:22:26;31.40;1.00
4594;DHT22;2309;51.674;8.368;2023-06-14T15:24:53;32.70;1.00
4594;DHT22;2309;51.674;8.368;2023-06-14T15:27:20;32.80;1.00
4594;DHT22;2309;51.674;8.368;2023-06-14T15:29:47;33.30;1.00
4594;DHT22;2309;51.674;8.368;2023-06-14T15:32:14;35.00;1.00
4594;DHT22;2309;51.674;8.368;2023-06-14T15:34:41;38.00;1.00
4594;DHT22;2309;51.674;8.368;2023-06-14T15:37:08;37.90;1.00
4594;DHT22;2309;51.674;8.368;2023-06-14T15:39:35;38.50;1.00
4594;DHT22;2309;51.674;8.368;2023-06-14T15:42:02;38.50;1.00
4594;DHT22;2309;51.674;8.368;2023-06-14T15:44:30;39.80;1.00
4594;DHT22;2309;51.674;8.368;2023-06-14T15:46:57;38.80;1.00
4594;DHT22;2309;51.674;8.368;2023-06-14T15:49:26;38.10;1.00
4594;DHT22;2309;51.674;8.368;2023-06-14T15:51:53;37.40;1.00
4594;DHT22;2309;51.674;8.368;2023-06-14T15:54:20;37.50;1.00
4594;DHT22;2309;51.674;8.368;2023-06-14T15:56:47;39.80;1.00
4594;DHT22;2309;51.674;8.368;2023-06-14T15:59:14;36.70;1.00
4594;DHT22;2309;51.674;8.368;2023-06-14T16:01:41;35.10;1.00
4594;DHT22;2309;51.674;8.368;2023-06-14T16:04:09;35.10;1.00
4594;DHT22;2309;51.674;8.368;2023-06-14T16:06:35;36.30;1.00
4594;DHT22;2309;51.674;8.368;2023-06-14T16:09:03;38.10;1.00
4594;DHT22;2309;51.674;8.368;2023-06-14T16:11:29;38.80;1.00
4594;DHT22;2309;51.674;8.368;2023-06-14T16:13:56;39.50;1.00
4594;DHT22;2309;51.674;8.368;2023-06-14T16:16:23;38.40;1.00
4594;DHT22;2309;51.674;8.368;2023-06-14T16:18:50;39.00;1.00
4594;DHT22;2309;51.674;8.368;2023-06-14T16:21:18;40.30;1.00
4594;DHT22;2309;51.674;8.368;2023-06-14T16:23:45;40.40;1.00
4594;DHT22;2309;51.674;8.368;2023-06-14T16:26:14;39.70;1.00
4594;DHT22;2309;51.674;8.368;2023-06-14T16:28:41;39.70;1.00
4594;DHT22;2309;51.674;8.368;2023-06-14T16:31:09;40.30;1.00
4594;DHT22;2309;51.674;8.368;2023-06-14T16:33:35;40.80;1.00
4594;DHT22;2309;51.674;8.368;2023-06-14T16:36:03;41.20;1.00
4594;DHT22;2309;51.674;8.368;2023-06-14T16:38:30;40.50;1.00
4594;DHT22;2309;51.674;8.368;2023-06-14T16:40:58;40.50;1.00
4594;DHT22;2309;51.674;8.368;2023-06-14T16:43:26;39.80;1.00
4594;DHT22;2309;51.674;8.368;2023-06-14T16:45:53;37.90;1.00
4594;DHT22;2309;51.674;8.368;2023-06-14T16:48:20;38.30;1.00
4594;DHT22;2309;51.674;8.368;2023-06-14T16:50:48;39.10;1.00
4594;DHT22;2309;51.674;8.368;2023-06-14T16:53:16;40.10;1.00
4594;DHT22;2309;51.674;8.368;2023-06-14T16:55:43;40.30;1.00
4594;DHT22;2309;51.674;8.368;2023-06-14T16:58:10;39.60;1.00
4594;DHT22;2309;51.674;8.368;2023-06-14T17:00:37;36.60;1.00
4594;DHT22;2309;51.674;8.368;2023-06-14T17:03:06;38.00;1.00
4594;DHT22;2309;51.674;8.368;2023-06-14T17:05:35;38.70;1.00
4594;DHT22;2309;51.674;8.368;2023-06-14T17:08:03;38.70;1.00
4594;DHT22;2309;51.674;8.368;2023-06-14T17:10:34;37.70;1.00
4594;DHT22;2309;51.674;8.368;2023-06-14T17:13:03;36.70;1.00
4594;DHT22;2309;51.674;8.368;2023-06-14T17:15:30;36.10;1.00
4594;DHT22;2309;51.674;8.368;2023-06-14T17:17:58;36.70;1.00
4594;DHT22;2309;51.674;8.368;2023-06-14T17:20:25;38.40;1.00
4594;DHT22;2309;51.674;8.368;2023-06-14T17:22:53;39.60;1.00
4594;DHT22;2309;51.674;8.368;2023-06-14T17:25:20;39.50;1.00
4594;DHT22;2309;51.674;8.368;2023-06-14T17:27:47;37.70;1.00
4594;DHT22;2309;51.674;8.368;2023-06-14T17:30:15;40.30;1.00
4594;DHT22;2309;51.674;8.368;2023-06-14T17:32:42;39.00;1.00
4594;DHT22;2309;51.674;8.368;2023-06-14T17:35:10;39.70;1.00
4594;DHT22;2309;51.674;8.368;2023-06-14T17:37:38;38.40;1.00
4594;DHT22;2309;51.674;8.368;2023-06-14T17:40:07;38.70;1.00
4594;DHT22;2309;51.674;8.368;2023-06-14T17:42:34;38.90;1.00
4594;DHT22;2309;51.674;8.368;2023-06-14T17:47:28;38.90;1.00
4594;DHT22;2309;51.674;8.368;2023-06-14T17:49:55;39.10;1.00
4594;DHT22;2309;51.674;8.368;2023-06-14T17:52:23;39.10;1.00
4594;DHT22;2309;51.674;8.368;2023-06-14T17:54:50;38.50;1.00
4594;DHT22;2309;51.674;8.368;2023-06-14T17:57:17;38.30;1.00
4594;DHT22;2309;51.674;8.368;2023-06-14T17:59:44;37.90;1.00
4594;DHT22;2309;51.674;8.368;2023-06-14T18:02:12;37.40;1.00
4594;DHT22;2309;51.674;8.368;2023-06-14T18:07:06;35.50;1.00
4594;DHT22;2309;51.674;8.368;2023-06-14T18:09:35;35.40;1.00
4594;DHT22;2309;51.674;8.368;2023-06-14T18:12:01;34.50;1.00
4594;DHT22;2309;51.674;8.368;2023-06-14T18:14:30;34.00;1.00
4594;DHT22;2309;51.674;8.368;2023-06-14T18:16:58;32.30;1.00
4594;DHT22;2309;51.674;8.368;2023-06-14T18:19:25;30.30;1.00
4594;DHT22;2309;51.674;8.368;2023-06-14T18:21:54;29.70;1.00
4594;DHT22;2309;51.674;8.368;2023-06-14T18:24:23;29.80;1.00
4594;DHT22;2309;51.674;8.368;2023-06-14T18:26:50;32.70;1.00
4594;DHT22;2309;51.674;8.368;2023-06-14T18:29:18;32.70;1.00
4594;DHT22;2309;51.674;8.368;2023-06-14T18:31:46;33.50;1.00
4594;DHT22;2309;51.674;8.368;2023-06-14T18:34:15;32.90;1.00
4594;DHT22;2309;51.674;8.368;2023-06-14T18:36:42;32.60;1.00
4594;DHT22;2309;51.674;8.368;2023-06-14T18:39:10;32.80;1.00
4594;DHT22;2309;51.674;8.368;2023-06-14T18:41:37;32.50;1.00
4594;DHT22;2309;51.674;8.368;2023-06-14T18:44:05;32.20;1.00
4594;DHT22;2309;51.674;8.368;2023-06-14T18:46:32;31.80;1.00
4594;DHT22;2309;51.674;8.368;2023-06-14T18:49:00;31.70;1.00
4594;DHT22;2309;51.674;8.368;2023-06-14T18:51:27;29.90;1.00
4594;DHT22;2309;51.674;8.368;2023-06-14T18:53:54;28.40;1.00
4594;DHT22;2309;51.674;8.368;2023-06-14T18:56:22;27.10;1.00
4594;DHT22;2309;51.674;8.368;2023-06-14T18:58:49;26.80;1.00
4594;DHT22;2309;51.674;8.368;2023-06-14T19:01:16;27.10;1.00
4594;DHT22;2309;51.674;8.368;2023-06-14T19:03:43;27.60;1.00
4594;DHT22;2309;51.674;8.368;2023-06-14T19:06:09;27.90;1.00
4594;DHT22;2309;51.674;8.368;2023-06-14T19:08:36;27.90;1.00
4594;DHT22;2309;51.674;8.368;2023-06-14T19:11:04;27.90;1.00
4594;DHT22;2309;51.674;8.368;2023-06-14T19:13:32;27.30;1.00
4594;DHT22;2309;51.674;8.368;2023-06-14T19:15:58;27.20;1.00
4594;DHT22;2309;51.674;8.368;2023-06-14T19:18:25;26.80;1.00
4594;DHT22;2309;51.674;8.368;2023-06-14T19:20:53;26.40;1.00
4594;DHT22;2309;51.674;8.368;2023-06-14T19:23:20;26.00;1.00
4594;DHT22;2309;51.674;8.368;2023-06-14T19:25:48;25.50;1.00
4594;DHT22;2309;51.674;8.368;2023-06-14T19:28:14;25.10;1.00
4594;DHT22;2309;51.674;8.368;2023-06-14T19:30:42;24.50;1.00
4594;DHT22;2309;51.674;8.368;2023-06-14T19:33:09;24.10;1.00
4594;DHT22;2309;51.674;8.368;2023-06-14T19:35:38;23.20;1.00
4594;DHT22;2309;51.674;8.368;2023-06-14T19:38:04;22.80;1.00
4594;DHT22;2309;51.674;8.368;2023-06-14T19:40:31;22.20;1.00
4594;DHT22;2309;51.674;8.368;2023-06-14T19:42:58;21.90;1.00
4594;DHT22;2309;51.674;8.368;2023-06-14T19:45:27;21.60;1.00
4594;DHT22;2309;51.674;8.368;2023-06-14T19:47:53;21.30;1.00
4594;DHT22;2309;51.674;8.368;2023-06-14T19:50:21;21.10;1.00
4594;DHT22;2309;51.674;8.368;2023-06-14T19:52:48;20.90;1.00
4594;DHT22;2309;51.674;8.368;2023-06-14T19:57:42;20.60;1.00
4594;DHT22;2309;51.674;8.368;2023-06-14T20:00:08;20.50;1.00
4594;DHT22;2309;51.674;8.368;2023-06-14T20:02:36;20.30;1.00
4594;DHT22;2309;51.674;8.368;2023-06-14T20:05:03;20.10;1.00
4594;DHT22;2309;51.674;8.368;2023-06-14T20:07:29;20.00;1.00
4594;DHT22;2309;51.674;8.368;2023-06-14T20:12:24;19.80;1.00
4594;DHT22;2309;51.674;8.368;2023-06-14T20:14:51;19.70;1.00
4594;DHT22;2309;51.674;8.368;2023-06-14T20:17:18;19.70;1.00
4594;DHT22;2309;51.674;8.368;2023-06-14T20:19:45;19.60;1.00
4594;DHT22;2309;51.674;8.368;2023-06-14T20:22:14;19.60;1.00
4594;DHT22;2309;51.674;8.368;2023-06-14T20:24:41;19.50;1.00
4594;DHT22;2309;51.674;8.368;2023-06-14T20:27:09;19.50;1.00
4594;DHT22;2309;51.674;8.368;2023-06-14T20:29:37;19.50;1.00
4594;DHT22;2309;51.674;8.368;2023-06-14T20:32:04;19.50;1.00
4594;DHT22;2309;51.674;8.368;2023-06-14T20:36:58;19.30;1.00
4594;DHT22;2309;51.674;8.368;2023-06-14T20:39:24;19.20;1.00